Terminal Aerodrome Forecast
Issued by NWS

Home | Current Version | Previous Version | Text Only | Print | Product List | Glossary On
Versions: 1 2 3 4 5 6 7 8 9 10 11 12
215
FTUS42 KGSP 300534
TAFGMU
TAF
KGMU 300534Z 3006/0106 00000KT P6SM SCT150 BKN250
     FM301600 10006KT P6SM BKN140
     FM301700 14006KT P6SM SCT040 BKN200 PROB30 3017/3023 4SM -TSRA
      OVC040CB
     FM302300 14005KT P6SM -SHRA SCT030 OVC060
      TEMPO 3023/0103 4SM TSRA OVC025CB
     FM010300 13005KT P6SM VCSH OVC050=

USA.gov is the U.S. government's official web portal to all federal, state and local government web resources and services.